createdAt,value
2017-08-15T00:00:29.474Z,6.00
2017-08-15T00:01:30.198Z,6.00
2017-08-15T00:02:30.919Z,6.00
2017-08-15T00:03:31.663Z,7.00
2017-08-15T00:04:32.385Z,7.00
2017-08-15T00:05:33.110Z,8.00
2017-08-15T00:06:33.831Z,9.00
2017-08-15T00:07:34.554Z,7.00
2017-08-15T00:08:35.277Z,7.00
2017-08-15T00:09:36.002Z,7.00
2017-08-15T00:10:36.727Z,6.00
2017-08-15T00:11:37.449Z,8.00
2017-08-15T00:12:38.170Z,8.00
2017-08-15T00:13:38.895Z,8.00
2017-08-15T00:14:39.619Z,7.00
2017-08-15T00:15:40.343Z,8.00
2017-08-15T00:16:41.094Z,7.00
2017-08-15T00:17:41.818Z,7.00
2017-08-15T00:18:42.540Z,7.00
2017-08-15T00:19:43.288Z,8.00
2017-08-15T00:20:44.010Z,6.00
2017-08-15T00:21:44.731Z,7.00
2017-08-15T00:22:45.453Z,7.00
2017-08-15T00:23:46.176Z,8.00
2017-08-15T00:24:46.900Z,6.00
2017-08-15T00:25:47.623Z,7.00
2017-08-15T00:26:48.348Z,8.00
2017-08-15T00:27:49.092Z,9.00
2017-08-15T00:28:49.816Z,7.00
2017-08-15T00:29:50.564Z,7.00
2017-08-15T00:30:51.311Z,7.00
2017-08-15T00:31:52.036Z,7.00
2017-08-15T00:32:52.782Z,8.00
2017-08-15T00:33:53.501Z,8.00
2017-08-15T00:34:54.222Z,7.00
2017-08-15T00:35:54.942Z,8.00
2017-08-15T00:36:55.667Z,7.00
2017-08-15T00:37:56.387Z,8.00
2017-08-15T00:38:57.130Z,8.00
2017-08-15T00:39:57.855Z,8.00
2017-08-15T00:40:58.580Z,7.00
2017-08-15T00:41:59.323Z,7.00
2017-08-15T00:43:00.049Z,9.00
2017-08-15T00:44:00.799Z,7.00
2017-08-15T00:45:01.520Z,8.00
2017-08-15T00:46:02.237Z,7.00
2017-08-15T00:47:02.959Z,9.00
2017-08-15T00:48:03.683Z,8.00
2017-08-15T00:49:04.408Z,7.00
2017-08-15T00:50:05.150Z,7.00
2017-08-15T00:51:05.875Z,8.00
2017-08-15T00:52:06.620Z,8.00
2017-08-15T00:53:07.339Z,8.00
2017-08-15T00:54:08.066Z,9.00
2017-08-15T00:55:08.788Z,9.00
2017-08-15T00:56:09.509Z,8.00
2017-08-15T00:57:10.254Z,7.00
2017-08-15T00:58:10.977Z,8.00
2017-08-15T00:59:11.704Z,7.00
2017-08-15T01:00:12.427Z,5.00
2017-08-15T01:01:13.163Z,9.00
2017-08-15T01:02:13.874Z,8.00
2017-08-15T01:03:14.599Z,8.00
2017-08-15T01:04:15.321Z,8.00
2017-08-15T01:05:16.047Z,9.00
2017-08-15T01:06:16.796Z,7.00
2017-08-15T01:07:17.492Z,8.00
2017-08-15T01:08:18.239Z,8.00
2017-08-15T01:09:18.964Z,8.00
2017-08-15T01:10:19.713Z,8.00
2017-08-15T01:11:20.438Z,8.00
2017-08-15T01:12:21.159Z,6.00
2017-08-15T01:13:21.884Z,8.00
2017-08-15T01:14:22.604Z,7.00
2017-08-15T01:15:23.328Z,8.00
2017-08-15T01:16:49.724Z,9.00
2017-08-15T01:17:50.472Z,7.00
2017-08-15T01:18:51.194Z,6.00
2017-08-15T01:19:51.919Z,9.00
2017-08-15T01:20:52.645Z,8.00
2017-08-15T01:21:53.393Z,7.00
2017-08-15T01:22:54.143Z,8.00
2017-08-15T01:23:54.864Z,8.00
2017-08-15T01:24:55.584Z,9.00
2017-08-15T01:25:56.308Z,7.00
2017-08-15T01:26:57.036Z,7.00
2017-08-15T01:27:57.762Z,8.00
2017-08-15T01:28:58.507Z,9.00
2017-08-15T01:29:59.233Z,8.00
2017-08-15T01:30:59.952Z,7.00
2017-08-15T01:32:00.678Z,8.00
2017-08-15T01:33:01.403Z,7.00
2017-08-15T01:34:02.148Z,8.00
2017-08-15T01:35:02.874Z,7.00
2017-08-15T01:36:03.600Z,8.00
2017-08-15T01:37:04.343Z,8.00
2017-08-15T01:38:05.071Z,7.00
2017-08-15T01:39:05.790Z,8.00
2017-08-15T01:40:06.511Z,6.00
2017-08-15T01:41:07.237Z,8.00
2017-08-15T01:42:07.980Z,7.00
2017-08-15T01:43:08.704Z,8.00
2017-08-15T01:44:09.424Z,7.00
2017-08-15T01:45:10.146Z,7.00
2017-08-15T01:46:10.869Z,8.00
2017-08-15T01:47:11.592Z,7.00
2017-08-15T01:48:12.340Z,8.00
2017-08-15T01:49:13.065Z,8.00
2017-08-15T01:50:13.788Z,8.00
2017-08-15T01:51:14.536Z,8.00
2017-08-15T01:52:15.257Z,8.00
2017-08-15T01:53:15.985Z,6.00
2017-08-15T01:54:16.706Z,9.00
2017-08-15T01:55:17.432Z,7.00
2017-08-15T01:56:18.159Z,10.00
2017-08-15T01:57:18.882Z,8.00
2017-08-15T01:58:19.603Z,8.00
2017-08-15T01:59:20.350Z,9.00
2017-08-15T02:00:21.072Z,8.00
2017-08-15T02:01:21.796Z,7.00
2017-08-15T02:02:22.518Z,8.00
2017-08-15T02:03:23.244Z,7.00
2017-08-15T02:04:23.985Z,8.00
2017-08-15T02:05:24.710Z,8.00
2017-08-15T02:06:25.434Z,7.00
2017-08-15T02:07:26.178Z,8.00
2017-08-15T02:08:26.902Z,9.00
2017-08-15T02:09:27.625Z,7.00
2017-08-15T02:10:28.353Z,7.00
2017-08-15T02:11:29.075Z,8.00
2017-08-15T02:12:29.821Z,7.00
2017-08-15T02:13:30.548Z,8.00
2017-08-15T02:14:31.271Z,8.00
2017-08-15T02:15:31.994Z,6.00
2017-08-15T02:16:32.745Z,7.00
2017-08-15T02:17:33.470Z,8.00
2017-08-15T02:18:34.218Z,7.00
2017-08-15T02:19:34.942Z,7.00
2017-08-15T02:20:35.665Z,9.00
2017-08-15T02:21:36.410Z,9.00
2017-08-15T02:22:37.133Z,8.00
2017-08-15T02:23:37.857Z,9.00
2017-08-15T02:24:38.585Z,9.00
2017-08-15T02:25:39.330Z,7.00
2017-08-15T02:26:40.053Z,7.00
2017-08-15T02:27:40.775Z,8.00
2017-08-15T02:28:41.501Z,8.00
2017-08-15T02:29:42.222Z,9.00
2017-08-15T02:30:42.946Z,7.00
2017-08-15T02:31:43.696Z,10.00
2017-08-15T02:32:44.424Z,9.00
2017-08-15T02:33:45.148Z,8.00
2017-08-15T02:34:45.868Z,7.00
2017-08-15T02:35:46.619Z,9.00
2017-08-15T02:36:47.341Z,7.00
2017-08-15T02:37:48.065Z,9.00
2017-08-15T02:38:48.786Z,9.00
2017-08-15T02:39:49.513Z,7.00
2017-08-15T02:40:50.260Z,7.00
2017-08-15T02:41:50.982Z,7.00
2017-08-15T02:42:51.703Z,7.00
2017-08-15T02:43:52.456Z,7.00
2017-08-15T02:44:53.177Z,9.00
2017-08-15T02:45:53.896Z,7.00
2017-08-15T02:46:54.619Z,9.00
2017-08-15T02:47:55.344Z,8.00
2017-08-15T02:48:56.088Z,8.00
2017-08-15T02:49:56.812Z,9.00
2017-08-15T02:50:57.536Z,8.00
2017-08-15T02:51:58.257Z,8.00
2017-08-15T02:52:58.985Z,8.00
2017-08-15T02:53:59.727Z,7.00
2017-08-15T02:55:00.450Z,8.00
2017-08-15T02:56:01.174Z,8.00
2017-08-15T02:57:01.898Z,8.00
2017-08-15T02:58:02.620Z,7.00
2017-08-15T02:59:03.347Z,8.00
2017-08-15T03:00:04.068Z,8.00
2017-08-15T03:01:04.814Z,6.00
2017-08-15T03:02:05.537Z,8.00
2017-08-15T03:03:06.259Z,8.00
2017-08-15T03:04:06.983Z,6.00
2017-08-15T03:05:07.709Z,8.00
2017-08-15T03:06:08.431Z,8.00
2017-08-15T03:07:09.159Z,7.00
2017-08-15T03:08:09.881Z,8.00
2017-08-15T03:09:10.628Z,8.00
2017-08-15T03:10:11.352Z,8.00
2017-08-15T03:11:12.076Z,8.00
2017-08-15T03:12:12.801Z,9.00
2017-08-15T03:13:13.521Z,8.00
2017-08-15T03:14:14.247Z,8.00
2017-08-15T03:15:14.966Z,9.00
2017-08-15T03:16:15.691Z,10.00
2017-08-15T03:17:16.413Z,9.00
2017-08-15T03:18:17.157Z,8.00
2017-08-15T03:19:17.887Z,10.00
2017-08-15T03:20:18.610Z,7.00
2017-08-15T03:21:19.332Z,8.00
2017-08-15T03:22:20.053Z,10.00
2017-08-15T03:23:20.802Z,10.00
2017-08-15T03:24:21.527Z,10.00
2017-08-15T03:25:22.250Z,8.00
2017-08-15T03:26:22.973Z,11.00
2017-08-15T03:27:23.698Z,10.00
2017-08-15T03:28:24.445Z,9.00
2017-08-15T03:29:25.187Z,7.00
2017-08-15T03:30:25.928Z,7.00
2017-08-15T03:31:26.652Z,8.00
2017-08-15T03:32:27.377Z,9.00
2017-08-15T03:33:28.101Z,9.00
2017-08-15T03:34:28.825Z,9.00
2017-08-15T03:35:29.566Z,10.00
2017-08-15T03:36:30.274Z,9.00
2017-08-15T03:37:30.996Z,9.00
2017-08-15T03:38:31.728Z,9.00
2017-08-15T03:39:32.441Z,8.00
2017-08-15T03:40:33.165Z,9.00
2017-08-15T03:41:33.908Z,7.00
2017-08-15T03:42:34.656Z,8.00
2017-08-15T03:43:35.379Z,9.00
2017-08-15T03:44:36.102Z,9.00
2017-08-15T03:45:36.848Z,9.00
2017-08-15T03:46:37.568Z,8.00
2017-08-15T03:47:38.292Z,9.00
2017-08-15T03:48:39.013Z,9.00
2017-08-15T03:49:39.739Z,9.00
2017-08-15T03:50:40.485Z,9.00
2017-08-15T03:51:41.210Z,10.00
2017-08-15T03:52:41.934Z,9.00
2017-08-15T03:53:42.659Z,8.00
2017-08-15T03:54:43.383Z,8.00
2017-08-15T03:55:44.106Z,9.00
2017-08-15T03:56:44.833Z,9.00
2017-08-15T03:57:45.581Z,9.00
2017-08-15T03:58:46.304Z,8.00
2017-08-15T03:59:47.033Z,8.00
2017-08-15T04:00:47.756Z,9.00
2017-08-15T04:01:48.502Z,10.00
2017-08-15T04:02:49.251Z,9.00
2017-08-15T04:03:49.977Z,8.00
2017-08-15T04:04:50.727Z,10.00
2017-08-15T04:05:51.452Z,8.00
2017-08-15T04:06:52.179Z,8.00
2017-08-15T04:07:52.922Z,9.00
2017-08-15T04:08:53.649Z,9.00
2017-08-15T04:09:54.395Z,9.00
2017-08-15T04:10:55.141Z,8.00
2017-08-15T04:11:55.888Z,8.00
2017-08-15T04:12:56.611Z,8.00
2017-08-15T04:13:57.340Z,8.00
2017-08-15T04:14:58.087Z,10.00
2017-08-15T04:15:58.818Z,8.00
2017-08-15T04:16:59.566Z,8.00
2017-08-15T04:18:00.315Z,8.00
2017-08-15T04:19:01.043Z,9.00
2017-08-15T04:20:01.772Z,11.00
2017-08-15T04:21:02.522Z,10.00
2017-08-15T04:22:03.276Z,7.00
2017-08-15T04:23:04.024Z,8.00
2017-08-15T04:24:04.769Z,9.00
2017-08-15T04:25:05.501Z,9.00
2017-08-15T04:26:06.227Z,8.00
2017-08-15T04:27:06.953Z,9.00
2017-08-15T04:28:07.681Z,8.00
2017-08-15T04:29:08.404Z,8.00
2017-08-15T04:30:09.133Z,9.00
2017-08-15T04:31:09.855Z,10.00
2017-08-15T04:32:10.587Z,10.00
2017-08-15T04:33:11.311Z,9.00
2017-08-15T04:34:12.059Z,8.00
2017-08-15T04:35:12.789Z,9.00
2017-08-15T04:36:13.518Z,10.00
2017-08-15T04:37:14.247Z,10.00
2017-08-15T04:38:14.975Z,10.00
2017-08-15T04:39:15.725Z,8.00
2017-08-15T04:40:16.453Z,10.00
2017-08-15T04:41:17.180Z,11.00
2017-08-15T04:42:17.907Z,9.00
2017-08-15T04:43:18.638Z,10.00
2017-08-15T04:44:19.387Z,12.00
2017-08-15T04:45:20.112Z,10.00
2017-08-15T04:46:20.840Z,8.00
2017-08-15T04:47:21.572Z,9.00
2017-08-15T04:48:22.322Z,10.00
2017-08-15T04:49:23.050Z,8.00
2017-08-15T04:50:23.777Z,9.00
2017-08-15T04:51:24.506Z,10.00
2017-08-15T04:52:25.237Z,11.00
2017-08-15T04:53:25.965Z,9.00
2017-08-15T04:54:26.696Z,9.00
2017-08-15T04:55:27.425Z,8.00
2017-08-15T04:56:28.154Z,9.00
2017-08-15T04:57:28.882Z,9.00
2017-08-15T04:58:29.608Z,9.00
2017-08-15T04:59:30.340Z,10.00
2017-08-15T05:00:31.071Z,10.00
2017-08-15T05:01:31.799Z,9.00
2017-08-15T05:02:32.551Z,8.00
2017-08-15T05:03:33.283Z,9.00
2017-08-15T05:04:34.011Z,8.00
2017-08-15T05:05:34.743Z,10.00
2017-08-15T05:06:35.494Z,9.00
2017-08-15T05:07:36.226Z,10.00
2017-08-15T05:08:36.952Z,7.00
2017-08-15T05:09:37.704Z,9.00
2017-08-15T05:10:38.435Z,10.00
2017-08-15T05:11:39.163Z,8.00
2017-08-15T05:12:39.894Z,10.00
2017-08-15T05:13:40.622Z,10.00
2017-08-15T05:14:41.350Z,8.00
2017-08-15T05:15:42.078Z,8.00
2017-08-15T05:16:42.806Z,9.00
2017-08-15T05:17:43.532Z,8.00
2017-08-15T05:18:44.258Z,7.00
2017-08-15T05:19:44.990Z,8.00
2017-08-15T05:20:45.719Z,9.00
2017-08-15T05:21:46.451Z,10.00
2017-08-15T05:22:47.204Z,9.00
2017-08-15T05:23:47.931Z,9.00
2017-08-15T05:24:48.660Z,9.00
2017-08-15T05:25:49.405Z,8.00
2017-08-15T05:26:50.135Z,8.00
2017-08-15T05:27:50.861Z,10.00
2017-08-15T05:28:51.587Z,7.00
2017-08-15T05:29:52.312Z,9.00
2017-08-15T05:30:53.042Z,7.00
2017-08-15T05:31:53.773Z,8.00
2017-08-15T05:32:54.499Z,9.00
2017-08-15T05:33:55.229Z,9.00
2017-08-15T05:34:55.954Z,7.00
2017-08-15T05:35:56.709Z,9.00
2017-08-15T05:36:57.432Z,9.00
2017-08-15T05:37:58.162Z,11.00
2017-08-15T05:38:58.889Z,9.00
2017-08-15T05:39:59.620Z,9.00
2017-08-15T05:41:00.349Z,8.00
2017-08-15T05:42:01.083Z,8.00
2017-08-15T05:43:01.830Z,9.00
2017-08-15T05:44:02.576Z,8.00
2017-08-15T05:45:03.309Z,8.00
2017-08-15T05:46:04.037Z,9.00
2017-08-15T05:47:04.788Z,8.00
2017-08-15T05:48:05.533Z,8.00
2017-08-15T05:49:06.248Z,8.00
2017-08-15T05:50:06.978Z,7.00
2017-08-15T05:51:07.731Z,7.00
2017-08-15T05:52:08.466Z,9.00
2017-08-15T05:53:09.189Z,9.00
2017-08-15T05:54:09.921Z,8.00
2017-08-15T05:55:10.649Z,9.00
2017-08-15T05:56:11.378Z,9.00
2017-08-15T05:57:12.109Z,9.00
2017-08-15T05:58:12.835Z,8.00
2017-08-15T05:59:13.564Z,9.00
2017-08-15T06:00:14.296Z,9.00
2017-08-15T06:01:15.021Z,7.00
2017-08-15T06:02:15.747Z,8.00
2017-08-15T06:03:16.473Z,8.00
2017-08-15T06:04:17.202Z,10.00
2017-08-15T06:05:17.931Z,9.00
2017-08-15T06:06:18.912Z,10.00
2017-08-15T06:07:19.636Z,8.00
2017-08-15T06:08:20.366Z,8.00
2017-08-15T06:09:21.096Z,9.00
2017-08-15T06:10:21.825Z,9.00
2017-08-15T06:11:22.558Z,10.00
2017-08-15T06:12:23.284Z,9.00
2017-08-15T06:13:24.018Z,9.00
2017-08-15T06:14:24.747Z,8.00
2017-08-15T06:15:25.474Z,9.00
2017-08-15T06:16:26.202Z,10.00
2017-08-15T06:17:26.932Z,9.00
2017-08-15T06:18:27.669Z,8.00
2017-08-15T06:19:28.389Z,8.00
2017-08-15T06:20:29.119Z,9.00
2017-08-15T06:21:29.870Z,11.00
2017-08-15T06:22:30.601Z,9.00
2017-08-15T06:23:31.331Z,10.00
2017-08-15T06:24:32.069Z,9.00
2017-08-15T06:25:32.792Z,11.00
2017-08-15T06:26:33.512Z,8.00
2017-08-15T06:27:34.260Z,8.00
2017-08-15T06:28:34.995Z,10.00
2017-08-15T06:29:35.721Z,8.00
2017-08-15T06:30:36.447Z,9.00
2017-08-15T06:31:37.201Z,9.00
2017-08-15T06:32:37.928Z,10.00
2017-08-15T06:33:38.662Z,11.00
2017-08-15T06:34:39.415Z,9.00
2017-08-15T06:35:40.149Z,10.00
2017-08-15T06:36:40.881Z,9.00
2017-08-15T06:37:41.638Z,9.00
2017-08-15T06:38:42.368Z,9.00
2017-08-15T06:39:43.098Z,8.00
2017-08-15T06:40:43.827Z,10.00
2017-08-15T06:41:44.577Z,9.00
2017-08-15T06:42:45.328Z,9.00
2017-08-15T06:43:46.083Z,8.00
2017-08-15T06:44:46.838Z,6.00
2017-08-15T06:45:47.574Z,9.00
2017-08-15T06:46:48.319Z,8.00
2017-08-15T06:47:49.055Z,9.00
2017-08-15T06:48:49.778Z,9.00
2017-08-15T06:49:50.513Z,8.00
2017-08-15T06:50:51.268Z,9.00
2017-08-15T06:51:52.019Z,6.00
2017-08-15T06:52:52.747Z,9.00
2017-08-15T06:53:53.480Z,8.00
2017-08-15T06:54:54.206Z,8.00
2017-08-15T06:55:54.960Z,10.00
2017-08-15T06:56:55.668Z,8.00
2017-08-15T06:57:56.398Z,8.00
2017-08-15T06:58:57.131Z,8.00
2017-08-15T06:59:57.893Z,10.00
2017-08-15T07:00:58.598Z,9.00
2017-08-15T07:01:59.331Z,9.00
2017-08-15T07:03:00.060Z,8.00
2017-08-15T07:04:00.818Z,9.00
2017-08-15T07:05:01.551Z,9.00
2017-08-15T07:06:02.280Z,7.00
2017-08-15T07:07:03.041Z,8.00
2017-08-15T07:08:03.774Z,9.00
2017-08-15T07:09:04.533Z,8.00
2017-08-15T07:10:05.272Z,8.00
2017-08-15T07:11:06.033Z,8.00
2017-08-15T07:12:06.774Z,7.00
2017-08-15T07:13:07.514Z,7.00
2017-08-15T07:14:08.250Z,9.00
2017-08-15T07:15:08.992Z,8.00
2017-08-15T07:16:09.729Z,7.00
2017-08-15T07:17:10.468Z,8.00
2017-08-15T07:18:11.230Z,8.00
2017-08-15T07:19:11.990Z,6.00
2017-08-15T07:20:12.733Z,10.00
2017-08-15T07:21:13.470Z,7.00
2017-08-15T07:22:14.212Z,7.00
2017-08-15T07:23:14.949Z,6.00
2017-08-15T07:24:15.688Z,8.00
2017-08-15T07:25:16.423Z,8.00
2017-08-15T07:26:17.159Z,7.00
2017-08-15T07:27:17.897Z,7.00
2017-08-15T07:28:18.632Z,6.00
2017-08-15T07:29:19.373Z,7.00
2017-08-15T07:30:20.109Z,6.00
2017-08-15T07:31:20.870Z,7.00
2017-08-15T07:32:21.628Z,6.00
2017-08-15T07:33:22.367Z,5.00
2017-08-15T07:34:23.106Z,7.00
2017-08-15T07:35:23.844Z,6.00
2017-08-15T07:36:24.582Z,6.00
2017-08-15T07:37:25.342Z,5.00
2017-08-15T07:38:26.083Z,6.00
2017-08-15T07:39:26.818Z,7.00
2017-08-15T07:40:27.555Z,6.00
2017-08-15T07:41:28.297Z,7.00
2017-08-15T07:42:29.062Z,6.00
2017-08-15T07:43:29.800Z,6.00
2017-08-15T07:44:30.562Z,6.00
2017-08-15T07:45:31.326Z,5.00
2017-08-15T07:46:32.065Z,6.00
2017-08-15T07:47:32.829Z,6.00
2017-08-15T07:48:33.566Z,6.00
2017-08-15T07:49:34.305Z,6.00
2017-08-15T07:50:35.039Z,5.00
2017-08-15T07:51:35.778Z,6.00
2017-08-15T07:52:36.508Z,7.00
2017-08-15T07:53:37.250Z,6.00
2017-08-15T07:54:37.988Z,6.00
2017-08-15T07:55:38.722Z,8.00
2017-08-15T07:56:39.463Z,5.00
2017-08-15T07:57:40.200Z,6.00
2017-08-15T07:58:40.963Z,5.00
2017-08-15T07:59:41.693Z,5.00
2017-08-15T08:00:42.434Z,5.00
2017-08-15T08:01:43.167Z,5.00
2017-08-15T08:02:43.908Z,5.00
2017-08-15T08:03:44.670Z,5.00
2017-08-15T08:04:45.432Z,5.00
2017-08-15T08:05:46.169Z,8.00
2017-08-15T08:06:46.906Z,6.00
2017-08-15T08:07:47.644Z,5.00
2017-08-15T08:08:48.400Z,5.00
2017-08-15T08:09:49.141Z,5.00
2017-08-15T08:10:49.878Z,5.00
2017-08-15T08:11:50.637Z,7.00
2017-08-15T08:12:51.403Z,6.00
2017-08-15T08:13:52.161Z,7.00
2017-08-15T08:14:52.901Z,5.00
2017-08-15T08:15:53.640Z,6.00
2017-08-15T08:16:54.375Z,5.00
2017-08-15T08:17:55.117Z,4.00
2017-08-15T08:18:55.850Z,5.00
2017-08-15T08:19:56.611Z,7.00
2017-08-15T08:20:57.347Z,6.00
2017-08-15T08:21:58.089Z,6.00
2017-08-15T08:22:58.826Z,6.00
2017-08-15T08:23:59.571Z,6.00
2017-08-15T08:25:00.307Z,4.00
2017-08-15T08:26:01.044Z,5.00
2017-08-15T08:27:01.783Z,5.00
2017-08-15T08:28:02.531Z,5.00
2017-08-15T08:29:03.265Z,7.00
2017-08-15T08:30:04.003Z,6.00
2017-08-15T08:31:04.746Z,4.00
2017-08-15T08:32:05.486Z,5.00
2017-08-15T08:33:06.223Z,6.00
2017-08-15T08:34:06.981Z,6.00
2017-08-15T08:35:07.724Z,5.00
2017-08-15T08:36:08.494Z,6.00
2017-08-15T08:37:09.237Z,5.00
2017-08-15T08:38:09.988Z,7.00
2017-08-15T08:39:10.717Z,7.00
2017-08-15T08:40:11.459Z,5.00
2017-08-15T08:41:12.205Z,6.00
2017-08-15T08:42:12.948Z,5.00
2017-08-15T08:43:13.686Z,5.00
2017-08-15T08:44:14.448Z,8.00
2017-08-15T08:45:15.189Z,7.00
2017-08-15T08:46:15.929Z,6.00
2017-08-15T08:47:16.665Z,5.00
2017-08-15T08:48:17.425Z,6.00
2017-08-15T08:49:18.163Z,5.00
2017-08-15T08:50:18.923Z,7.00
2017-08-15T08:51:19.662Z,6.00
2017-08-15T08:52:20.401Z,4.00
2017-08-15T08:53:21.139Z,5.00
2017-08-15T08:54:21.876Z,5.00
2017-08-15T08:55:22.635Z,5.00
2017-08-15T08:56:23.375Z,5.00
2017-08-15T08:57:24.110Z,5.00
2017-08-15T08:58:24.852Z,7.00
2017-08-15T08:59:25.610Z,6.00
2017-08-15T09:00:26.350Z,5.00
2017-08-15T09:01:27.084Z,6.00
2017-08-15T09:02:27.846Z,5.00
2017-08-15T09:03:28.581Z,6.00
2017-08-15T09:04:29.317Z,5.00
2017-08-15T09:05:30.053Z,6.00
2017-08-15T09:06:30.788Z,5.00
2017-08-15T09:07:31.526Z,5.00
2017-08-15T09:08:32.261Z,5.00
2017-08-15T09:09:33.022Z,5.00
2017-08-15T09:10:33.759Z,7.00
2017-08-15T09:11:34.496Z,8.00
2017-08-15T09:12:35.256Z,7.00
2017-08-15T09:13:36.014Z,6.00
2017-08-15T09:14:36.745Z,6.00
2017-08-15T09:15:37.483Z,6.00
2017-08-15T09:16:38.221Z,8.00
2017-08-15T09:17:38.976Z,7.00
2017-08-15T09:18:39.715Z,9.00
2017-08-15T09:19:40.454Z,8.00
2017-08-15T09:20:41.212Z,8.00
2017-08-15T09:21:41.947Z,7.00
2017-08-15T09:22:42.705Z,9.00
2017-08-15T09:23:43.442Z,8.00
2017-08-15T09:24:44.176Z,8.00
2017-08-15T09:25:44.916Z,7.00
2017-08-15T09:26:45.648Z,9.00
2017-08-15T09:27:46.388Z,8.00
2017-08-15T09:28:47.120Z,7.00
2017-08-15T09:29:47.879Z,7.00
2017-08-15T09:30:48.615Z,8.00
2017-08-15T09:31:49.352Z,7.00
2017-08-15T09:32:50.089Z,8.00
2017-08-15T09:33:50.824Z,6.00
2017-08-15T09:34:51.586Z,8.00
2017-08-15T09:35:52.323Z,8.00
2017-08-15T09:36:53.062Z,7.00
2017-08-15T09:37:53.798Z,6.00
2017-08-15T09:38:54.559Z,8.00
2017-08-15T09:39:55.297Z,7.00
2017-08-15T09:40:56.036Z,8.00
2017-08-15T09:41:56.774Z,7.00
2017-08-15T09:42:57.511Z,8.00
2017-08-15T09:43:58.247Z,7.00
2017-08-15T09:44:58.985Z,9.00
2017-08-15T09:45:59.748Z,9.00
2017-08-15T09:47:00.481Z,6.00
2017-08-15T09:48:01.215Z,8.00
2017-08-15T09:49:01.979Z,9.00
2017-08-15T09:50:02.710Z,8.00
2017-08-15T09:51:03.474Z,8.00
2017-08-15T09:52:04.204Z,7.00
2017-08-15T09:53:04.942Z,7.00
2017-08-15T09:54:05.702Z,7.00
2017-08-15T09:55:06.433Z,7.00
2017-08-15T09:56:07.166Z,7.00
2017-08-15T09:57:07.901Z,7.00
2017-08-15T09:58:08.637Z,7.00
2017-08-15T09:59:09.375Z,7.00
2017-08-15T10:00:10.137Z,8.00
2017-08-15T10:01:10.874Z,8.00
2017-08-15T10:02:11.612Z,9.00
2017-08-15T10:03:12.374Z,8.00
2017-08-15T10:04:13.109Z,7.00
2017-08-15T10:05:13.844Z,7.00
2017-08-15T10:06:14.577Z,7.00
2017-08-15T10:07:15.319Z,7.00
2017-08-15T10:08:16.080Z,11.00
2017-08-15T10:09:16.814Z,9.00
2017-08-15T10:10:17.552Z,11.00
2017-08-15T10:11:18.292Z,8.00
2017-08-15T10:12:19.029Z,9.00
2017-08-15T10:13:19.763Z,8.00
2017-08-15T10:14:20.497Z,8.00
2017-08-15T10:15:21.234Z,8.00
2017-08-15T10:16:21.995Z,8.00
2017-08-15T10:17:22.728Z,9.00
2017-08-15T10:18:23.464Z,7.00
2017-08-15T10:19:24.216Z,8.00
2017-08-15T10:20:24.958Z,10.00
2017-08-15T10:21:25.717Z,8.00
2017-08-15T10:22:26.455Z,7.00
2017-08-15T10:23:27.191Z,9.00
2017-08-15T10:24:27.924Z,8.00
2017-08-15T10:25:28.684Z,9.00
2017-08-15T10:26:29.440Z,8.00
2017-08-15T10:27:30.158Z,10.00
2017-08-15T10:28:30.892Z,10.00
2017-08-15T10:29:31.631Z,8.00
2017-08-15T10:30:32.385Z,8.00
2017-08-15T10:31:33.122Z,10.00
2017-08-15T10:32:33.860Z,8.00
2017-08-15T10:33:34.620Z,7.00
2017-08-15T10:34:35.357Z,9.00
2017-08-15T10:35:36.089Z,9.00
2017-08-15T10:36:36.827Z,8.00
2017-08-15T10:37:37.564Z,7.00
2017-08-15T10:38:38.333Z,8.00
2017-08-15T10:39:39.079Z,9.00
2017-08-15T10:40:39.813Z,9.00
2017-08-15T10:41:40.570Z,8.00
2017-08-15T10:42:41.301Z,7.00
2017-08-15T10:43:42.034Z,6.00
2017-08-15T10:44:42.764Z,7.00
2017-08-15T10:45:43.524Z,7.00
2017-08-15T10:46:44.259Z,7.00
2017-08-15T10:47:44.995Z,7.00
2017-08-15T10:48:45.731Z,9.00
2017-08-15T10:49:46.471Z,10.00
2017-08-15T10:50:47.205Z,10.00
2017-08-15T10:51:47.968Z,9.00
2017-08-15T10:52:48.723Z,10.00
2017-08-15T10:53:49.460Z,9.00
2017-08-15T10:54:50.193Z,8.00
2017-08-15T10:55:50.954Z,7.00
2017-08-15T10:56:51.690Z,8.00
2017-08-15T10:57:52.427Z,9.00
2017-08-15T10:58:53.165Z,9.00
2017-08-15T10:59:53.901Z,10.00
2017-08-15T11:00:54.638Z,7.00
2017-08-15T11:01:55.376Z,9.00
2017-08-15T11:02:56.112Z,9.00
2017-08-15T11:03:56.848Z,8.00
2017-08-15T11:04:57.604Z,9.00
2017-08-15T11:05:58.366Z,8.00
2017-08-15T11:06:59.108Z,7.00
2017-08-15T11:07:59.849Z,8.00
2017-08-15T11:09:00.580Z,7.00
2017-08-15T11:10:01.320Z,8.00
2017-08-15T11:11:02.057Z,9.00
2017-08-15T11:12:02.822Z,9.00
2017-08-15T11:13:03.580Z,9.00
2017-08-15T11:14:04.339Z,8.00
2017-08-15T11:15:05.079Z,9.00
2017-08-15T11:16:05.817Z,9.00
2017-08-15T11:17:06.553Z,9.00
2017-08-15T11:18:07.287Z,8.00
2017-08-15T11:19:08.027Z,9.00
2017-08-15T11:20:08.766Z,9.00
2017-08-15T11:21:09.509Z,9.00
2017-08-15T11:22:10.247Z,8.00
2017-08-15T11:23:10.980Z,7.00
2017-08-15T11:24:11.717Z,9.00
2017-08-15T11:25:12.454Z,10.00
2017-08-15T11:26:13.193Z,8.00
2017-08-15T11:27:13.928Z,9.00
2017-08-15T11:28:14.685Z,9.00
2017-08-15T11:29:15.423Z,7.00
2017-08-15T11:30:16.161Z,9.00
2017-08-15T11:31:16.897Z,10.00
2017-08-15T11:32:17.656Z,9.00
2017-08-15T11:33:18.395Z,9.00
2017-08-15T11:34:19.137Z,10.00
2017-08-15T11:35:19.868Z,9.00
2017-08-15T11:36:20.603Z,9.00
2017-08-15T11:37:21.341Z,12.00
2017-08-15T11:38:22.080Z,10.00
2017-08-15T11:39:22.842Z,9.00
2017-08-15T11:40:23.606Z,11.00
2017-08-15T11:41:24.342Z,9.00
2017-08-15T11:42:25.081Z,9.00
2017-08-15T11:43:25.816Z,8.00
2017-08-15T11:44:26.550Z,8.00
2017-08-15T11:45:27.283Z,7.00
2017-08-15T11:46:28.041Z,6.00
2017-08-15T11:47:28.798Z,6.00
2017-08-15T11:48:29.537Z,8.00
2017-08-15T11:49:30.271Z,7.00
2017-08-15T11:50:31.030Z,6.00
2017-08-15T11:51:31.771Z,7.00
2017-08-15T11:52:32.530Z,11.00
2017-08-15T11:53:33.269Z,7.00
2017-08-15T11:54:34.003Z,7.00
2017-08-15T11:55:34.735Z,7.00
2017-08-15T11:56:35.470Z,7.00
2017-08-15T11:57:36.207Z,8.00
2017-08-15T11:58:36.965Z,6.00
2017-08-15T11:59:37.701Z,7.00
2017-08-15T12:00:38.441Z,7.00
2017-08-15T12:01:39.179Z,6.00
2017-08-15T12:02:39.937Z,7.00
2017-08-15T12:03:40.670Z,7.00
2017-08-15T12:04:41.428Z,8.00
2017-08-15T12:05:42.164Z,8.00
2017-08-15T12:06:42.902Z,8.00
2017-08-15T12:07:43.662Z,8.00
2017-08-15T12:08:44.398Z,7.00
2017-08-15T12:09:45.132Z,9.00
2017-08-15T12:10:45.889Z,7.00
2017-08-15T12:11:46.628Z,9.00
2017-08-15T12:12:47.367Z,8.00
2017-08-15T12:13:48.101Z,7.00
2017-08-15T12:14:48.844Z,8.00
2017-08-15T12:15:49.581Z,8.00
2017-08-15T12:16:50.322Z,7.00
2017-08-15T12:17:51.083Z,6.00
2017-08-15T12:18:51.822Z,8.00
2017-08-15T12:19:52.567Z,8.00
2017-08-15T12:20:53.338Z,9.00
2017-08-15T12:21:54.099Z,7.00
2017-08-15T12:22:54.841Z,6.00
2017-08-15T12:23:55.582Z,7.00
2017-08-15T12:24:56.324Z,7.00
2017-08-15T12:25:57.066Z,6.00
2017-08-15T12:26:57.834Z,5.00
2017-08-15T12:27:58.581Z,6.00
2017-08-15T12:28:59.327Z,6.00
2017-08-15T12:30:00.071Z,6.00
2017-08-15T12:31:00.825Z,5.00
2017-08-15T12:32:01.577Z,8.00
2017-08-15T12:33:02.332Z,7.00
2017-08-15T12:34:03.080Z,7.00
2017-08-15T12:35:03.830Z,6.00
2017-08-15T12:36:04.583Z,6.00
2017-08-15T12:37:05.334Z,5.00
2017-08-15T12:38:06.090Z,8.00
2017-08-15T12:39:06.837Z,9.00
2017-08-15T12:40:07.608Z,7.00
2017-08-15T12:41:08.359Z,7.00
2017-08-15T12:42:09.105Z,7.00
2017-08-15T12:43:09.883Z,5.00
2017-08-15T12:44:10.631Z,6.00
2017-08-15T12:45:11.376Z,4.00
2017-08-15T12:46:12.129Z,5.00
2017-08-15T12:47:12.878Z,6.00
2017-08-15T12:48:13.627Z,5.00
2017-08-15T12:49:14.374Z,4.00
2017-08-15T12:50:15.129Z,8.00
2017-08-15T12:51:15.876Z,6.00
2017-08-15T12:52:16.624Z,5.00
2017-08-15T12:53:17.406Z,6.00
2017-08-15T12:54:18.130Z,7.00
2017-08-15T12:55:18.878Z,7.00
2017-08-15T12:56:19.648Z,7.00
2017-08-15T12:57:20.397Z,5.00
2017-08-15T12:58:21.148Z,6.00
2017-08-15T12:59:21.900Z,7.00
2017-08-15T13:00:22.646Z,3.00
2017-08-15T13:01:23.397Z,5.00
2017-08-15T13:02:24.144Z,5.00
2017-08-15T13:03:24.895Z,6.00
2017-08-15T13:04:25.648Z,6.00
2017-08-15T13:05:26.396Z,6.00
2017-08-15T13:06:27.149Z,5.00
2017-08-15T13:07:27.902Z,5.00
2017-08-15T13:08:28.675Z,7.00
2017-08-15T13:09:29.449Z,5.00
2017-08-15T13:10:30.197Z,5.00
2017-08-15T13:11:30.950Z,4.00
2017-08-15T13:12:31.704Z,4.00
2017-08-15T13:13:32.454Z,3.00
2017-08-15T13:14:33.203Z,4.00
2017-08-15T13:15:33.953Z,4.00
2017-08-15T13:16:34.702Z,3.00
2017-08-15T13:17:35.454Z,4.00
2017-08-15T13:18:36.199Z,4.00
2017-08-15T13:19:36.945Z,4.00
2017-08-15T13:20:37.693Z,4.00
2017-08-15T13:21:38.444Z,4.00
2017-08-15T13:22:39.213Z,4.00
2017-08-15T13:23:39.966Z,4.00
2017-08-15T13:24:40.712Z,4.00
2017-08-15T13:25:41.463Z,4.00
2017-08-15T13:26:42.236Z,5.00